Terminal Aerodrome Forecast
Issued by NWS

Home | Current Version | Previous Version | Text Only | Print | Product List | Glossary On
Versions: 1 2 3 4 5 6 7 8 9 10 11 12 13 14 15
000
FTUS43 KILX 010100 AAA
TAFDEC
TAF AMD
KDEC 010119Z 0101/0124 17008KT 4SM -RA BR OVC015
     FM010300 15008KT 6SM BR VCSH OVC015
     FM010900 12010KT 2SM -RASN BR OVC008
     FM011500 12012KT 1SM -SN OVC004
     FM012100 03012KT 2SM -SN OVC008=

USA.gov is the U.S. government's official web portal to all federal, state and local government web resources and services.